weather.gov     
National Weather Service

Terminal Aerodrome Forecast
NWS Homepage
This page is being discontinued on March 12, 2014.
The same data is available at this site. Please update your bookmarks.
Thank you, and we apologize for the inconvenience.
Please send an email to SR-SRH.Webmaster@noaa.gov with any concerns.


Current Version
Previous Version:    01  02  03  04  05  06  07  08  09  10  11  12  13  14  15  16  17  18  19  20  21  22  23  24  25  26  27  
[Printable]
632
FTUS45 KABQ 241700
TAFFMN
TAF
KFMN 241726Z 2418/2518 VRB05KT P6SM SCT100
     FM242000 21011KT P6SM VCSH SCT100 BKN200
     FM242200 26010KT P6SM VCTS SCT090CB BKN150
      TEMPO 2422/2424 VRB15G30KT -SHRA BKN080 OVC120
     FM250100 VRB06KT P6SM VCSH SCT100 BKN150
     FM250500 09007KT P6SM BKN150=


U.S. Dept. of Commerce
NOAA National Weather Service
1325 East West Highway
Silver Spring, MD 20910
E-mail: w-nws.webmaster@noaa.gov
Page last modified: May 16, 2007
NATIONAL WEATHER SERVICE: for Safety, for Work, for Fun - FOR LIFE